Time;durP1;ratioP1;P1;durP2;ratioP2;P2;SDS_P1;SDS_P2;PMS_P1;PMS_P2;Temp;Humidity;BMP_temperature;BMP_pressure;BME280_temperature;BME280_humidity;BME280_pressure;Samples;Min_cycle;Max_cycle;Signal;HPM_P1;HPM_P2
2021/07/23 00:01:15;;;;;;;7.13;5.13;;;;;;;15.82;76.93;97004.03;128241;1091;40483;-94
2021/07/23 00:03:48;;;;;;;8.55;5.13;;;;;;;15.90;77.02;97005.17;128128;1091;30305;-93
2021/07/23 00:06:19;;;;;;;8.13;5.30;;;;;;;15.89;77.00;96996.37;128237;1091;65939;-92
2021/07/23 00:08:51;;;;;;;8.60;5.35;;;;;;;15.86;76.46;96988.95;128212;1092;37369;-93
2021/07/23 00:11:22;;;;;;;9.30;5.30;;;;;;;15.91;76.31;97004.11;128205;1091;35640;-93
2021/07/23 00:13:54;;;;;;;8.43;5.43;;;;;;;15.95;76.43;97000.52;128187;1092;32996;-93
2021/07/23 00:16:25;;;;;;;6.95;4.90;;;;;;;15.94;76.22;96993.59;128180;1092;35041;-94
2021/07/23 00:18:57;;;;;;;8.43;5.23;;;;;;;15.89;76.66;96992.91;128201;1092;32828;-94
2021/07/23 00:21:28;;;;;;;7.98;5.55;;;;;;;15.90;76.84;96992.59;128266;1090;31968;-94
2021/07/23 00:24:00;;;;;;;7.18;5.20;;;;;;;15.91;76.28;96986.19;128293;1093;41383;-92
2021/07/23 00:26:31;;;;;;;7.55;5.20;;;;;;;15.91;76.54;96988.86;128281;1093;33692;-92
2021/07/23 00:29:03;;;;;;;8.55;5.40;;;;;;;15.88;76.29;96988.66;128163;1089;29248;-92
2021/07/23 00:31:35;;;;;;;7.98;4.90;;;;;;;15.92;76.36;96995.78;128236;1092;34348;-92
2021/07/23 00:34:06;;;;;;;8.18;5.48;;;;;;;15.97;76.32;96997.54;128219;1091;30823;-93
2021/07/23 00:36:38;;;;;;;8.80;5.35;;;;;;;15.94;76.35;96990.92;128200;1091;36009;-94
2021/07/23 00:39:10;;;;;;;9.53;5.13;;;;;;;15.96;76.15;96995.97;128199;1091;30807;-92
2021/07/23 00:41:41;;;;;;;9.60;4.85;;;;;;;15.94;76.40;96998.95;128228;1092;35664;-93
2021/07/23 00:44:12;;;;;;;8.45;5.20;;;;;;;15.95;76.35;97002.41;128212;1093;37292;-93
2021/07/23 00:46:45;;;;;;;7.28;5.30;;;;;;;15.97;76.39;97001.00;128165;1093;47388;-93
2021/07/23 00:49:17;;;;;;;6.87;5.00;;;;;;;16.00;75.99;96996.93;128232;1092;30886;-93
2021/07/23 00:51:48;;;;;;;9.70;4.83;;;;;;;15.97;75.49;96995.66;128187;1091;33458;-92
2021/07/23 00:54:21;;;;;;;9.73;5.55;;;;;;;15.92;75.33;96993.11;128153;1092;29991;-90
2021/07/23 00:56:52;;;;;;;6.98;5.05;;;;;;;15.91;74.99;96994.20;128203;1092;35724;-93
2021/07/23 00:59:24;;;;;;;7.95;4.83;;;;;;;15.87;74.93;96993.20;128251;1092;30753;-94
2021/07/23 01:01:56;;;;;;;6.78;4.93;;;;;;;15.91;75.22;96994.20;128250;1090;26955;-92
2021/07/23 01:04:28;;;;;;;5.70;4.80;;;;;;;15.95;75.10;96989.03;128209;1092;50568;-92
2021/07/23 01:07:00;;;;;;;8.23;5.83;;;;;;;15.96;75.26;96987.94;128236;1092;26672;-93
2021/07/23 01:09:33;;;;;;;7.00;4.88;;;;;;;15.93;75.12;96978.64;128250;1091;34511;-93
2021/07/23 01:12:06;;;;;;;8.37;5.20;;;;;;;15.94;74.76;96984.78;128217;1092;31911;-92
2021/07/23 01:14:37;;;;;;;9.35;5.58;;;;;;;15.95;74.76;96981.02;128224;1093;41598;-93
2021/07/23 01:17:09;;;;;;;7.60;5.20;;;;;;;15.91;74.39;96977.38;128317;1091;26473;-93
2021/07/23 01:19:47;;;;;;;11.68;5.58;;;;;;;15.84;74.44;96972.44;128316;1091;26366;-93
2021/07/23 01:22:21;;;;;;;8.33;5.65;;;;;;;15.80;74.93;96970.67;128224;1092;30686;-93
2021/07/23 01:24:53;;;;;;;7.80;5.33;;;;;;;15.77;74.88;96977.42;128236;1090;29344;-94
2021/07/23 01:27:25;;;;;;;9.33;5.65;;;;;;;15.73;75.28;96977.22;128206;1091;28863;-93
2021/07/23 01:30:07;;;;;;;8.85;6.15;;;;;;;15.65;76.27;96977.16;128240;1092;29418;-94
2021/07/23 01:32:39;;;;;;;7.70;5.80;;;;;;;15.62;76.58;96977.73;128268;1091;35394;-92
2021/07/23 01:35:12;;;;;;;7.40;5.10;;;;;;;15.65;76.25;96980.63;128178;1092;32404;-93
2021/07/23 01:37:46;;;;;;;8.28;5.80;;;;;;;15.71;76.13;96978.61;128155;1091;32775;-93
2021/07/23 01:40:18;;;;;;;7.85;5.03;;;;;;;15.71;75.51;96970.59;128168;1092;47193;-94
2021/07/23 01:42:49;;;;;;;8.58;5.63;;;;;;;15.67;75.49;96973.09;128180;1093;31666;-93
2021/07/23 01:45:21;;;;;;;8.05;5.70;;;;;;;15.70;75.96;96974.36;128192;1092;25190;-93
2021/07/23 01:47:53;;;;;;;10.08;6.00;;;;;;;15.72;75.66;96966.83;128267;1091;25032;-94
2021/07/23 01:50:24;;;;;;;9.48;5.83;;;;;;;15.74;75.70;96973.45;128239;1091;28285;-93
2021/07/23 01:52:56;;;;;;;8.38;5.58;;;;;;;15.81;76.09;96973.05;128247;1092;33771;-95
2021/07/23 01:55:27;;;;;;;8.28;5.73;;;;;;;15.83;76.09;96967.39;128199;1091;29934;-90
2021/07/23 01:57:59;;;;;;;7.45;5.70;;;;;;;15.83;76.15;96962.83;128262;1091;31463;-93
2021/07/23 02:00:30;;;;;;;8.48;6.18;;;;;;;15.87;76.37;96963.80;128309;1092;35380;-93
2021/07/23 02:03:01;;;;;;;9.88;6.05;;;;;;;15.89;76.20;96958.94;128308;1093;30692;-91
2021/07/23 02:05:33;;;;;;;8.63;6.08;;;;;;;15.90;76.13;96955.16;128134;1093;22905;-88
2021/07/23 02:08:05;;;;;;;9.45;6.38;;;;;;;15.89;76.29;96958.14;128157;1093;29527;-88
2021/07/23 02:10:46;;;;;;;9.10;6.03;;;;;;;15.86;76.50;96956.08;128027;1093;26439;-89
2021/07/23 02:13:17;;;;;;;7.88;5.33;;;;;;;15.80;77.37;96954.64;128218;1093;23516;-90
2021/07/23 02:15:49;;;;;;;8.20;5.68;;;;;;;15.71;78.08;96962.58;129076;1090;22722;-90
2021/07/23 02:18:23;;;;;;;9.00;5.55;;;;;;;15.64;78.56;96956.88;129930;1092;23445;-90
2021/07/23 02:20:55;;;;;;;9.07;5.43;;;;;;;15.60;78.26;96962.01;129298;1093;22880;-90
2021/07/23 02:23:26;;;;;;;7.95;5.38;;;;;;;15.60;78.81;96959.33;128231;1092;22794;-89
2021/07/23 02:25:57;;;;;;;9.33;5.73;;;;;;;15.53;78.42;96956.27;128028;1092;24205;-89
2021/07/23 02:28:29;;;;;;;7.93;4.93;;;;;;;15.51;78.61;96957.67;127959;1092;38614;-88
2021/07/23 02:31:00;;;;;;;8.00;5.58;;;;;;;15.53;78.18;96958.94;128257;1092;23138;-89
2021/07/23 02:33:31;;;;;;;9.13;5.50;;;;;;;15.55;78.59;96955.96;128198;1092;23452;-88
2021/07/23 02:36:03;;;;;;;8.33;5.50;;;;;;;15.55;78.86;96959.42;127846;1093;23839;-89
2021/07/23 02:38:34;;;;;;;9.23;5.35;;;;;;;15.55;79.02;96958.64;128171;1093;23549;-87
2021/07/23 02:41:06;;;;;;;7.78;4.90;;;;;;;15.57;78.75;96951.11;128091;1093;23127;-89
2021/07/23 02:43:37;;;;;;;8.23;5.20;;;;;;;15.58;78.12;96947.34;128194;1092;22861;-89
2021/07/23 02:46:08;;;;;;;9.33;6.00;;;;;;;15.58;77.86;96947.34;128155;1093;24553;-90
2021/07/23 02:48:39;;;;;;;9.43;6.25;;;;;;;15.58;77.91;96952.69;128020;1093;23605;-88
2021/07/23 02:51:11;;;;;;;8.65;6.15;;;;;;;15.60;77.67;96950.52;128042;1093;28691;-89
2021/07/23 02:53:42;;;;;;;9.70;6.18;;;;;;;15.59;77.47;96948.91;128020;1092;23358;-90
2021/07/23 02:56:13;;;;;;;9.68;6.58;;;;;;;15.60;77.26;96950.52;128147;1092;22800;-89
2021/07/23 02:58:46;;;;;;;8.93;5.40;;;;;;;15.54;77.09;96952.50;128027;1093;22799;-90
2021/07/23 03:01:17;;;;;;;10.88;6.58;;;;;;;15.53;77.11;96955.48;128145;1093;27166;-90
2021/07/23 03:03:49;;;;;;;8.38;5.90;;;;;;;15.56;77.34;96950.31;128229;1093;24241;-90
2021/07/23 03:06:20;;;;;;;11.00;6.60;;;;;;;15.58;77.37;96942.78;127861;1092;24035;-89
2021/07/23 03:08:51;;;;;;;8.75;6.40;;;;;;;15.59;77.64;96947.06;128133;1092;29069;-90
2021/07/23 03:11:22;;;;;;;8.33;5.68;;;;;;;15.63;77.51;96936.58;127833;1093;31517;-89
2021/07/23 03:13:55;;;;;;;9.25;5.78;;;;;;;15.64;77.66;96941.63;128195;1092;23364;-90
2021/07/23 03:16:27;;;;;;;7.38;4.98;;;;;;;15.67;78.11;96937.55;127962;1093;24141;-90
2021/07/23 03:18:58;;;;;;;9.33;6.10;;;;;;;15.62;78.64;96940.32;128072;1092;23377;-89
2021/07/23 03:21:29;;;;;;;8.33;5.68;;;;;;;15.55;79.12;96938.05;128195;1093;22948;-90
2021/07/23 03:24:00;;;;;;;8.03;5.63;;;;;;;15.52;79.15;96935.20;128224;1091;23686;-89
2021/07/23 03:26:32;;;;;;;8.83;5.40;;;;;;;15.52;79.34;96938.66;128210;1092;22793;-89
2021/07/23 03:29:03;;;;;;;11.10;5.68;;;;;;;15.57;79.46;96938.53;128151;1092;25742;-89
2021/07/23 03:31:35;;;;;;;9.70;5.58;;;;;;;15.62;79.50;96934.97;127952;1092;23990;-89
2021/07/23 03:34:06;;;;;;;7.73;5.10;;;;;;;15.59;79.42;96938.23;127929;1092;22823;-89
2021/07/23 03:36:38;;;;;;;9.70;5.68;;;;;;;15.62;79.53;96933.13;128119;1092;24744;-89
2021/07/23 03:39:09;;;;;;;8.88;5.55;;;;;;;15.72;79.29;96934.75;128135;1092;22897;-90
2021/07/23 03:41:42;;;;;;;8.20;5.53;;;;;;;15.77;79.13;96939.20;128029;1092;23793;-89
2021/07/23 03:44:13;;;;;;;7.45;5.45;;;;;;;15.84;79.50;96926.98;128066;1093;42274;-89
2021/07/23 03:46:45;;;;;;;9.78;6.08;;;;;;;15.91;79.37;96938.05;128048;1093;22803;-89
2021/07/23 03:49:16;;;;;;;8.05;5.70;;;;;;;15.96;78.87;96931.78;127845;1093;25205;-89
2021/07/23 03:51:47;;;;;;;10.05;5.58;;;;;;;16.01;78.92;96928.98;128041;1093;33849;-89
2021/07/23 03:54:19;;;;;;;9.50;5.48;;;;;;;16.06;78.78;96930.76;128171;1092;25572;-89
2021/07/23 03:56:50;;;;;;;9.33;5.88;;;;;;;16.11;78.94;96934.09;128118;1092;22796;-89
2021/07/23 03:59:22;;;;;;;9.75;6.28;;;;;;;16.14;78.84;96933.47;128153;1093;24390;-90
2021/07/23 04:01:53;;;;;;;8.20;5.83;;;;;;;15.97;78.62;96934.16;128030;1092;23324;-89
2021/07/23 04:04:25;;;;;;;9.10;5.53;;;;;;;15.83;79.50;96932.64;128068;1092;23138;-89
2021/07/23 04:06:59;;;;;;;7.25;4.98;;;;;;;15.86;80.01;96927.46;128085;1093;23367;-89
2021/07/23 04:09:31;;;;;;;7.00;5.40;;;;;;;15.92;80.46;96933.50;128024;1093;23641;-89
2021/07/23 04:12:03;;;;;;;6.93;4.90;;;;;;;15.94;80.57;96929.42;128063;1092;27924;-90
2021/07/23 04:14:34;;;;;;;8.80;5.60;;;;;;;15.92;80.48;96934.28;127924;1093;24822;-89
2021/07/23 04:17:06;;;;;;;9.38;5.35;;;;;;;15.92;79.99;96928.94;127980;1092;37464;-89
2021/07/23 04:19:37;;;;;;;9.20;5.80;;;;;;;15.91;79.31;96935.38;128095;1092;26506;-89
2021/07/23 04:22:09;;;;;;;9.90;5.58;;;;;;;15.94;79.21;96934.77;128081;1093;22969;-90
2021/07/23 04:24:40;;;;;;;8.68;5.58;;;;;;;15.99;79.00;96931.95;127962;1093;23510;-90
2021/07/23 04:27:13;;;;;;;8.18;5.43;;;;;;;16.00;78.48;96930.86;128063;1092;25878;-89
2021/07/23 04:29:47;;;;;;;7.80;5.58;;;;;;;16.02;78.62;96927.88;128131;1092;24203;-89
2021/07/23 04:32:18;;;;;;;9.45;5.65;;;;;;;16.10;78.78;96926.38;128003;1092;24433;-89
2021/07/23 04:34:50;;;;;;;8.60;5.58;;;;;;;16.19;78.76;96922.66;127979;1093;22788;-89
2021/07/23 04:37:21;;;;;;;9.85;5.93;;;;;;;16.26;78.30;96928.35;127979;1091;22851;-90
2021/07/23 04:39:53;;;;;;;8.58;5.73;;;;;;;16.25;78.06;96923.31;127773;1092;35026;-88
2021/07/23 04:42:24;;;;;;;10.55;5.83;;;;;;;16.25;77.89;96923.31;128002;1092;25505;-89
2021/07/23 04:44:55;;;;;;;7.20;5.25;;;;;;;16.28;77.39;96918.13;127899;1093;23449;-90
2021/07/23 04:47:27;;;;;;;7.98;5.70;;;;;;;16.27;77.19;96915.77;128161;1092;24054;-90
2021/07/23 04:49:58;;;;;;;8.15;5.60;;;;;;;16.26;76.97;96919.53;127977;1093;23536;-90
2021/07/23 04:52:29;;;;;;;8.43;5.98;;;;;;;16.26;77.33;96914.97;128124;1092;23509;-89
2021/07/23 04:55:07;;;;;;;8.70;5.40;;;;;;;16.36;77.03;96910.47;128084;1092;23927;-89
2021/07/23 04:57:45;;;;;;;8.33;5.95;;;;;;;16.51;77.20;96912.73;127789;1093;26242;-90
2021/07/23 05:00:18;;;;;;;8.60;5.78;;;;;;;16.71;77.73;96914.88;128107;1093;28955;-89
2021/07/23 05:02:58;;;;;;;9.00;5.43;;;;;;;16.91;77.24;96908.19;128117;1092;27476;-90
2021/07/23 05:05:31;;;;;;;7.67;5.00;;;;;;;17.05;76.43;96906.17;128219;1092;24091;-93
2021/07/23 05:08:02;;;;;;;9.08;5.45;;;;;;;17.23;75.61;96906.19;128216;1093;25582;-90
2021/07/23 05:10:34;;;;;;;7.40;5.07;;;;;;;17.42;75.11;96912.03;128186;1093;22776;-87
2021/07/23 05:13:06;;;;;;;10.03;5.68;;;;;;;17.53;74.65;96901.80;128127;1092;34013;-89
2021/07/23 05:15:38;;;;;;;8.15;4.65;;;;;;;17.61;74.78;96909.06;128056;1092;22974;-89
2021/07/23 05:18:10;;;;;;;7.60;5.30;;;;;;;17.77;74.47;96912.87;128132;1093;27026;-91
2021/07/23 05:20:43;;;;;;;7.63;5.30;;;;;;;17.95;74.48;96913.63;128022;1092;22781;-89
2021/07/23 05:23:14;;;;;;;6.43;4.50;;;;;;;18.23;73.82;96909.47;128074;1093;22964;-88
2021/07/23 05:25:46;;;;;;;8.68;5.25;;;;;;;18.31;72.96;96908.67;128074;1092;26518;-89
2021/07/23 05:28:17;;;;;;;8.93;5.15;;;;;;;18.34;72.41;96916.08;128090;1093;24855;-90
2021/07/23 05:30:48;;;;;;;8.50;5.43;;;;;;;18.39;72.25;96918.58;127981;1093;25992;-89
2021/07/23 05:33:20;;;;;;;7.10;4.75;;;;;;;18.45;72.45;96907.69;128085;1093;36108;-89
2021/07/23 05:35:51;;;;;;;7.13;4.75;;;;;;;18.61;72.40;96911.41;127978;1092;22793;-88
2021/07/23 05:38:22;;;;;;;6.73;4.38;;;;;;;18.71;71.78;96904.90;128111;1093;42102;-88
2021/07/23 05:40:54;;;;;;;6.15;4.70;;;;;;;18.66;71.23;96900.51;128079;1092;33188;-89
2021/07/23 05:43:26;;;;;;;9.70;5.15;;;;;;;18.66;71.11;96895.92;128109;1092;24846;-89
2021/07/23 05:45:57;;;;;;;7.80;4.88;;;;;;;18.72;71.02;96901.10;128049;1093;25880;-89
2021/07/23 05:48:29;;;;;;;6.93;4.10;;;;;;;18.80;70.31;96897.59;127990;1092;22819;-87
2021/07/23 05:51:04;;;;;;;7.43;4.93;;;;;;;19.03;71.11;96898.91;128138;1093;23390;-88
2021/07/23 05:53:36;;;;;;;9.85;4.40;;;;;;;19.59;70.60;96896.80;128106;1092;23741;-89
2021/07/23 05:56:08;;;;;;;6.53;4.63;;;;;;;19.76;69.90;96893.95;128105;1093;23718;-88
2021/07/23 05:58:39;;;;;;;5.78;4.53;;;;;;;19.86;69.86;96895.46;128066;1092;26615;-89
2021/07/23 06:01:11;;;;;;;6.68;4.55;;;;;;;20.06;69.67;96891.92;127957;1093;23348;-89
2021/07/23 06:03:42;;;;;;;5.98;4.28;;;;;;;21.36;71.51;96887.63;127833;1093;25848;-87
2021/07/23 06:06:13;;;;;;;6.43;4.30;;;;;;;23.99;68.10;96888.66;128122;1091;25945;-89
2021/07/23 06:08:45;;;;;;;5.45;4.05;;;;;;;24.32;64.50;96892.75;128059;1092;25147;-88
2021/07/23 06:11:16;;;;;;;5.80;4.00;;;;;;;24.32;62.38;96883.84;128099;1093;24743;-90
2021/07/23 06:13:48;;;;;;;6.25;4.23;;;;;;;24.87;61.52;96890.56;128132;1093;23810;-89
2021/07/23 06:16:19;;;;;;;5.63;3.88;;;;;;;25.68;61.21;96896.40;128027;1093;26245;-90
2021/07/23 06:18:51;;;;;;;8.07;4.20;;;;;;;25.61;58.13;96892.77;128056;1092;29467;-89
2021/07/23 06:21:24;;;;;;;5.23;3.95;;;;;;;25.58;58.76;96893.52;128045;1092;23801;-91
2021/07/23 06:23:56;;;;;;;6.80;4.25;;;;;;;25.69;57.75;96895.25;128152;1093;25262;-91
2021/07/23 06:26:27;;;;;;;6.23;4.08;;;;;;;26.16;58.38;96891.11;128098;1093;23373;-91
2021/07/23 06:28:58;;;;;;;6.83;4.70;;;;;;;26.59;57.53;96896.97;128209;1093;25703;-90
2021/07/23 06:31:30;;;;;;;6.10;4.18;;;;;;;27.07;55.45;96899.72;128193;1093;22796;-92
2021/07/23 06:34:01;;;;;;;8.13;4.03;;;;;;;26.83;55.27;96896.41;128142;1093;33200;-90
2021/07/23 06:36:35;;;;;;;5.60;3.78;;;;;;;26.60;54.25;96893.91;128152;1093;36433;-90
2021/07/23 06:39:06;;;;;;;6.55;4.58;;;;;;;26.89;54.45;96889.47;128104;1093;23881;-92
2021/07/23 06:41:37;;;;;;;6.78;3.90;;;;;;;27.34;55.65;96892.11;128149;1092;24389;-91
2021/07/23 06:44:09;;;;;;;5.33;3.98;;;;;;;28.13;54.49;96894.00;128090;1092;26275;-91
2021/07/23 06:46:40;;;;;;;6.60;4.08;;;;;;;28.39;53.79;96890.96;128129;1092;22937;-89
2021/07/23 06:49:11;;;;;;;5.98;4.38;;;;;;;28.46;52.43;96890.20;128112;1093;22823;-88
2021/07/23 06:51:43;;;;;;;6.75;4.43;;;;;;;27.80;51.55;96884.17;127625;1093;26236;-90
2021/07/23 06:54:14;;;;;;;7.40;4.68;;;;;;;28.28;52.00;96890.16;128155;1092;28686;-94
2021/07/23 06:56:45;;;;;;;5.70;4.03;;;;;;;28.55;51.65;96884.34;128049;1092;35041;-94
2021/07/23 06:59:17;;;;;;;6.30;4.38;;;;;;;29.10;49.74;96883.97;128066;1093;61371;-92
2021/07/23 07:01:49;;;;;;;6.43;4.45;;;;;;;28.63;50.26;96885.92;128158;1092;31887;-93
2021/07/23 07:04:20;;;;;;;6.25;4.15;;;;;;;28.32;49.99;96882.78;128080;1091;74030;-94
2021/07/23 07:06:53;;;;;;;7.43;4.28;;;;;;;28.12;50.18;96881.53;128162;1093;54477;-90
2021/07/23 07:09:26;;;;;;;6.43;4.50;;;;;;;27.64;49.88;96881.78;128125;1093;31098;-92
2021/07/23 07:12:00;;;;;;;7.95;4.43;;;;;;;27.29;50.39;96884.28;128047;1093;25434;-92
2021/07/23 07:14:31;;;;;;;7.18;4.55;;;;;;;27.17;50.57;96880.74;128070;1093;22813;-92
2021/07/23 07:17:03;;;;;;;5.38;4.33;;;;;;;27.78;50.66;96878.33;127989;1093;23597;-93
2021/07/23 07:19:35;;;;;;;7.13;4.48;;;;;;;29.03;51.59;96878.53;128139;1092;34264;-94
2021/07/23 07:22:06;;;;;;;6.13;4.05;;;;;;;30.06;49.24;96879.00;128143;1093;43976;-93
2021/07/23 07:24:38;;;;;;;7.90;4.20;;;;;;;30.29;47.83;96883.95;128146;1093;24666;-95
2021/07/23 07:27:09;;;;;;;7.20;4.48;;;;;;;30.28;47.97;96884.34;128170;1093;26776;-95
2021/07/23 07:29:40;;;;;;;5.10;4.08;;;;;;;31.72;47.64;96877.96;128259;1092;30956;-95
2021/07/23 07:32:12;;;;;;;5.85;4.30;;;;;;;33.65;46.98;96876.52;128220;1092;27822;-95
2021/07/23 07:34:44;;;;;;;5.93;4.18;;;;;;;34.40;43.61;96874.94;128021;1091;27244;-94
2021/07/23 07:37:15;;;;;;;5.80;4.00;;;;;;;35.10;43.01;96879.15;128099;1093;31298;-94
2021/07/23 07:39:46;;;;;;;4.73;3.78;;;;;;;37.33;42.33;96870.86;128074;1093;51931;-93
2021/07/23 07:42:21;;;;;;;5.63;4.20;;;;;;;38.86;39.23;96865.03;128208;1092;31035;-93
2021/07/23 07:44:52;;;;;;;7.30;4.58;;;;;;;39.99;38.56;96868.88;129625;1093;32601;-93
2021/07/23 07:47:24;;;;;;;5.58;4.30;;;;;;;40.92;34.63;96867.98;129915;1093;22729;-93
2021/07/23 07:49:55;;;;;;;7.35;4.40;;;;;;;38.24;32.73;96870.66;128711;1092;24918;-93
2021/07/23 07:52:27;;;;;;;6.17;4.50;;;;;;;36.44;34.93;96873.77;128143;1091;25976;-92
2021/07/23 07:54:58;;;;;;;6.97;4.20;;;;;;;36.97;36.37;96867.73;128126;1093;26181;-90
2021/07/23 07:57:29;;;;;;;6.28;4.05;;;;;;;38.70;35.79;96870.83;128216;1092;24541;-90
2021/07/23 08:00:01;;;;;;;5.68;4.13;;;;;;;39.61;33.71;96874.94;128186;1092;25188;-90
2021/07/23 08:02:32;;;;;;;4.85;4.43;;;;;;;39.68;29.88;96877.38;128190;1092;22796;-92
2021/07/23 08:05:04;;;;;;;5.33;4.10;;;;;;;37.62;32.54;96876.13;128200;1092;22798;-91
2021/07/23 08:07:37;;;;;;;5.93;4.70;;;;;;;38.02;31.67;96867.17;128073;1092;52144;-89
2021/07/23 08:10:13;;;;;;;8.45;4.70;;;;;;;36.33;32.99;96872.58;128157;1092;22935;-92
2021/07/23 08:12:45;;;;;;;5.90;4.20;;;;;;;35.42;33.87;96872.02;128154;1092;35523;-90
2021/07/23 08:15:16;;;;;;;6.98;4.43;;;;;;;33.61;33.75;96873.04;128140;1092;22820;-85
2021/07/23 08:17:48;;;;;;;4.85;3.95;;;;;;;32.79;35.90;96862.72;128116;1092;22915;-90
2021/07/23 08:20:20;;;;;;;5.95;4.55;;;;;;;32.18;36.79;96871.11;128122;1093;44901;-90
2021/07/23 08:22:51;;;;;;;8.93;4.50;;;;;;;32.34;37.38;96865.80;128082;1092;22907;-89
2021/07/23 08:25:23;;;;;;;8.13;4.80;;;;;;;32.99;35.86;96869.09;128044;1091;46218;-89
2021/07/23 08:27:55;;;;;;;7.98;4.88;;;;;;;32.68;36.34;96859.41;128146;1092;45128;-94
2021/07/23 08:30:26;;;;;;;6.73;5.13;;;;;;;32.41;38.00;96870.42;128131;1092;24718;-91
2021/07/23 08:32:57;;;;;;;6.50;4.63;;;;;;;33.67;38.19;96870.59;128154;1092;26060;-91
2021/07/23 08:35:29;;;;;;;12.97;5.97;;;;;;;35.21;37.43;96871.38;128241;1093;45697;-93
2021/07/23 08:38:01;;;;;;;9.20;5.03;;;;;;;35.33;35.53;96872.61;128251;1093;28191;-94
2021/07/23 08:40:43;;;;;;;7.40;5.10;;;;;;;33.63;34.70;96876.14;128337;1093;25834;-95
2021/07/23 08:43:16;;;;;;;8.00;5.08;;;;;;;31.70;36.61;96863.89;128132;1092;28871;-92
2021/07/23 08:45:47;;;;;;;10.53;4.98;;;;;;;30.76;37.58;96875.41;128110;1092;24547;-93
2021/07/23 08:48:19;;;;;;;7.70;5.18;;;;;;;30.19;39.79;96867.59;128108;1093;47738;-91
2021/07/23 08:50:50;;;;;;;7.75;5.05;;;;;;;30.75;39.78;96876.59;128162;1092;22814;-84
2021/07/23 08:53:21;;;;;;;7.70;5.13;;;;;;;29.81;38.83;96872.84;128198;1092;22933;-85
2021/07/23 08:55:53;;;;;;;6.30;5.23;;;;;;;29.18;40.02;96874.60;128038;1093;26325;-83
2021/07/23 08:58:24;;;;;;;6.63;4.63;;;;;;;28.93;41.27;96863.72;128158;1092;23422;-84
2021/07/23 09:01:00;;;;;;;8.03;5.50;;;;;;;28.36;41.19;96864.47;128117;1093;31051;-85
2021/07/23 09:03:34;;;;;;;6.73;5.43;;;;;;;27.80;43.37;96865.10;128175;1092;28183;-87
2021/07/23 09:06:16;;;;;;;10.88;5.08;;;;;;;28.26;43.63;96867.95;128081;1093;24125;-91
2021/07/23 09:08:53;;;;;;;8.10;5.10;;;;;;;28.36;42.83;96863.70;127991;1093;56283;-94
2021/07/23 09:11:31;;;;;;;7.93;5.30;;;;;;;27.76;43.24;96869.77;128125;1092;39398;-88
2021/07/23 09:14:20;;;;;;;7.40;4.97;;;;;;;26.99;43.21;96871.64;128065;1092;22963;-90
2021/07/23 09:16:57;;;;;;;8.78;5.08;;;;;;;26.48;45.06;96874.38;128117;1092;23673;-91
2021/07/23 09:19:29;;;;;;;7.93;5.23;;;;;;;26.01;45.14;96867.66;128177;1091;22819;-90
2021/07/23 09:22:03;;;;;;;7.95;5.80;;;;;;;25.65;46.36;96863.75;128244;1093;23674;-87
2021/07/23 09:24:51;;;;;;;8.43;4.73;;;;;;;25.65;46.49;96863.75;128212;1093;22833;-87
2021/07/23 09:27:39;;;;;;;8.20;5.33;;;;;;;25.39;46.97;96865.37;128167;1093;23074;-93
2021/07/23 09:30:13;;;;;;;8.23;5.35;;;;;;;25.33;47.52;96863.33;128105;1092;22791;-89
2021/07/23 09:32:44;;;;;;;7.55;4.90;;;;;;;25.00;46.95;96858.59;128131;1091;23537;-91
2021/07/23 09:35:17;;;;;;;6.55;4.95;;;;;;;24.52;47.04;96867.17;128120;1093;24587;-89
2021/07/23 09:37:59;;;;;;;7.63;5.40;;;;;;;24.26;47.29;96867.86;128381;1092;24254;-90
2021/07/23 09:40:43;;;;;;;7.95;5.48;;;;;;;24.09;48.55;96862.91;128179;1093;22826;-91
2021/07/23 09:43:28;;;;;;;7.35;5.10;;;;;;;23.77;48.92;96858.80;128141;1093;22813;-89
2021/07/23 09:46:37;;;;;;;7.93;5.80;;;;;;;23.79;50.15;96857.33;128104;1092;22813;-88
2021/07/23 09:49:24;;;;;;;8.55;5.60;;;;;;;23.90;49.72;96855.59;128089;1093;23887;-89
2021/07/23 09:51:59;;;;;;;7.23;4.88;;;;;;;24.24;50.04;96850.41;128135;1092;25861;-89
2021/07/23 09:54:30;;;;;;;7.40;5.70;;;;;;;24.35;49.65;96850.59;128215;1093;22829;-90
2021/07/23 09:57:03;;;;;;;8.00;5.40;;;;;;;24.28;50.71;96856.66;128190;1092;22819;-88
2021/07/23 09:59:47;;;;;;;9.28;5.18;;;;;;;24.69;51.30;96844.19;128103;1093;23513;-87
2021/07/23 10:02:22;;;;;;;7.45;5.00;;;;;;;25.10;50.47;96841.72;128214;1093;22829;-89
2021/07/23 10:05:03;;;;;;;8.13;5.55;;;;;;;25.21;51.01;96836.45;128186;1092;27832;-88
2021/07/23 10:07:39;;;;;;;9.75;6.73;;;;;;;25.00;49.80;96839.60;128150;1091;22810;-85
2021/07/23 10:10:14;;;;;;;13.48;8.43;;;;;;;24.66;50.59;96839.50;128174;1093;27891;-88
2021/07/23 10:12:47;;;;;;;9.43;6.20;;;;;;;24.80;51.27;96837.01;128143;1093;22896;-89
2021/07/23 10:15:19;;;;;;;11.85;7.50;;;;;;;24.82;50.82;96831.22;128094;1092;40102;-88
2021/07/23 10:17:53;;;;;;;10.68;6.38;;;;;;;24.67;49.77;96835.64;128147;1091;22786;-89
2021/07/23 10:20:25;;;;;;;8.53;5.63;;;;;;;24.44;50.82;96827.53;128171;1093;25864;-89
2021/07/23 10:22:58;;;;;;;8.77;6.37;;;;;;;24.16;50.95;96830.52;128188;1091;23269;-90
2021/07/23 10:25:34;;;;;;;9.80;6.50;;;;;;;23.87;51.90;96820.33;128229;1093;22846;-89
2021/07/23 10:28:06;;;;;;;8.55;5.63;;;;;;;23.97;52.52;96820.53;128149;1093;32740;-88
2021/07/23 10:30:39;;;;;;;10.10;6.03;;;;;;;24.04;52.64;96821.78;128215;1092;22793;-88
2021/07/23 10:33:10;;;;;;;10.23;5.93;;;;;;;23.88;52.29;96824.59;128126;1092;23812;-90
2021/07/23 10:35:42;;;;;;;10.13;6.35;;;;;;;23.78;52.21;96820.55;128180;1093;32103;-89
2021/07/23 10:38:23;;;;;;;9.95;5.93;;;;;;;24.03;52.87;96815.58;128340;1093;26361;-90
2021/07/23 10:41:12;;;;;;;9.98;6.80;;;;;;;24.34;52.47;96811.09;128367;1092;22806;-88
2021/07/23 10:43:44;;;;;;;9.90;6.08;;;;;;;24.10;51.72;96810.30;128431;1092;37857;-89
2021/07/23 10:46:52;;;;;;;10.78;5.73;;;;;;;24.27;52.59;96800.91;128569;1092;23545;-90
2021/07/23 10:49:50;;;;;;;9.15;5.98;;;;;;;24.45;52.67;96807.41;128478;1093;22616;-90
2021/07/23 10:52:36;;;;;;;7.15;5.78;;;;;;;24.38;52.01;96806.53;128260;1092;22844;-90
2021/07/23 10:55:22;;;;;;;8.15;6.08;;;;;;;24.51;52.43;96800.55;128124;1092;23266;-89
2021/07/23 10:58:34;;;;;;;8.70;5.68;;;;;;;24.57;51.93;96798.30;128146;1091;22793;-89
2021/07/23 11:01:05;;;;;;;8.58;5.45;;;;;;;24.29;50.47;96798.61;128199;1092;23429;-88
2021/07/23 11:04:01;;;;;;;7.60;5.35;;;;;;;24.13;51.82;96801.45;128042;1093;25391;-89
2021/07/23 11:06:38;;;;;;;7.40;5.23;;;;;;;24.04;51.11;96794.70;128138;1092;23320;-89
2021/07/23 11:09:14;;;;;;;6.95;5.25;;;;;;;23.92;51.40;96785.59;128088;1093;28382;-91
2021/07/23 11:11:46;;;;;;;7.50;5.55;;;;;;;23.80;50.59;96793.92;128117;1092;23458;-92
2021/07/23 11:14:22;;;;;;;9.60;5.78;;;;;;;23.64;50.99;96785.09;128238;1093;29555;-90
2021/07/23 11:17:05;;;;;;;8.70;6.15;;;;;;;23.85;52.41;96784.70;128102;1092;24429;-92
2021/07/23 11:19:36;;;;;;;7.03;4.85;;;;;;;24.32;52.68;96789.00;128094;1092;28720;-90
2021/07/23 11:22:11;;;;;;;7.63;5.47;;;;;;;24.55;51.69;96789.76;128101;1092;23896;-90
2021/07/23 11:24:43;;;;;;;7.83;4.98;;;;;;;24.80;51.95;96780.06;128046;1091;22841;-89
2021/07/23 11:27:23;;;;;;;7.18;5.30;;;;;;;24.92;50.77;96773.64;128107;1093;23529;-90
2021/07/23 11:29:56;;;;;;;7.85;5.55;;;;;;;24.75;51.58;96780.36;128075;1093;26264;-89
2021/07/23 11:32:30;;;;;;;12.40;6.15;;;;;;;24.80;50.49;96780.06;128131;1091;23044;-91
2021/07/23 11:35:09;;;;;;;8.58;5.25;;;;;;;24.96;51.26;96781.81;128151;1093;24382;-89
2021/07/23 11:37:40;;;;;;;7.53;5.18;;;;;;;25.02;50.07;96775.72;127919;1092;22859;-89
2021/07/23 11:40:16;;;;;;;9.78;6.03;;;;;;;24.85;49.53;96776.24;128125;1092;22974;-90
2021/07/23 11:42:50;;;;;;;8.58;4.90;;;;;;;24.56;49.32;96767.70;128112;1092;26395;-90
2021/07/23 11:45:24;;;;;;;9.08;4.90;;;;;;;24.48;48.83;96776.86;128143;1092;22819;-89
2021/07/23 11:47:57;;;;;;;7.13;5.30;;;;;;;24.26;48.62;96770.31;128113;1093;23289;-92
2021/07/23 11:50:28;;;;;;;6.80;4.60;;;;;;;24.10;48.18;96769.67;128110;1091;24029;-90
2021/07/23 11:53:05;;;;;;;10.55;5.85;;;;;;;24.18;50.32;96755.08;128184;1093;22790;-89